sensor_id;sensor_type;location;lat;lon;timestamp;pressure;altitude;pressure_sealevel;temperature;humidity
35892;BME280;21993;42.672;23.296;2022-10-16T00:01:25;95349.44;;;12.40;65.93
35892;BME280;21993;42.672;23.296;2022-10-16T00:03:52;95357.91;;;12.44;65.46
35892;BME280;21993;42.672;23.296;2022-10-16T00:06:19;95356.25;;;12.43;66.19
35892;BME280;21993;42.672;23.296;2022-10-16T00:08:45;95368.03;;;12.39;66.41
35892;BME280;21993;42.672;23.296;2022-10-16T00:11:24;95373.94;;;12.31;66.32
35892;BME280;21993;42.672;23.296;2022-10-16T00:13:53;95367.97;;;12.29;65.98
35892;BME280;21993;42.672;23.296;2022-10-16T00:16:19;95372.63;;;12.26;66.17
35892;BME280;21993;42.672;23.296;2022-10-16T00:18:46;95374.00;;;12.20;66.43
35892;BME280;21993;42.672;23.296;2022-10-16T00:21:18;95363.22;;;12.23;66.14
35892;BME280;21993;42.672;23.296;2022-10-16T00:23:43;95375.28;;;12.26;66.48
35892;BME280;21993;42.672;23.296;2022-10-16T00:26:13;95368.03;;;12.18;66.71
35892;BME280;21993;42.672;23.296;2022-10-16T00:28:38;95381.19;;;12.18;66.82
35892;BME280;21993;42.672;23.296;2022-10-16T00:31:09;95388.97;;;12.20;67.26
35892;BME280;21993;42.672;23.296;2022-10-16T00:33:36;95377.22;;;12.24;66.36
35892;BME280;21993;42.672;23.296;2022-10-16T00:36:03;95386.56;;;12.17;66.44
35892;BME280;21993;42.672;23.296;2022-10-16T00:38:30;95384.06;;;12.15;66.60
35892;BME280;21993;42.672;23.296;2022-10-16T00:40:56;95384.34;;;12.12;67.09
35892;BME280;21993;42.672;23.296;2022-10-16T00:43:43;95381.13;;;12.08;67.11
35892;BME280;21993;42.672;23.296;2022-10-16T00:49:10;95376.38;;;12.02;66.54
35892;BME280;21993;42.672;23.296;2022-10-16T00:51:52;95375.72;;;11.89;67.44
35892;BME280;21993;42.672;23.296;2022-10-16T00:56:45;95378.25;;;11.79;67.33
35892;BME280;21993;42.672;23.296;2022-10-16T00:59:22;95380.28;;;11.76;67.36
35892;BME280;21993;42.672;23.296;2022-10-16T01:01:49;95381.66;;;11.70;67.42
35892;BME280;21993;42.672;23.296;2022-10-16T01:04:15;95390.94;;;11.74;67.23
35892;BME280;21993;42.672;23.296;2022-10-16T01:06:48;95383.19;;;11.73;67.42
35892;BME280;21993;42.672;23.296;2022-10-16T01:09:51;95383.88;;;11.75;67.53
35892;BME280;21993;42.672;23.296;2022-10-16T01:15:12;95386.06;;;11.70;67.18
35892;BME280;21993;42.672;23.296;2022-10-16T01:17:55;95385.72;;;11.63;66.74
35892;BME280;21993;42.672;23.296;2022-10-16T01:20:30;95388.69;;;11.70;66.59
35892;BME280;21993;42.672;23.296;2022-10-16T01:29:01;95380.41;;;11.53;66.83
35892;BME280;21993;42.672;23.296;2022-10-16T01:31:31;95368.31;;;11.51;66.65
35892;BME280;21993;42.672;23.296;2022-10-16T01:34:22;95370.38;;;11.47;67.19
35892;BME280;21993;42.672;23.296;2022-10-16T01:36:56;95381.03;;;11.35;67.87
35892;BME280;21993;42.672;23.296;2022-10-16T01:39:31;95371.56;;;11.43;67.50
35892;BME280;21993;42.672;23.296;2022-10-16T01:42:16;95377.28;;;11.48;67.24
35892;BME280;21993;42.672;23.296;2022-10-16T01:44:45;95371.06;;;11.49;67.50
35892;BME280;21993;42.672;23.296;2022-10-16T01:47:13;95370.84;;;11.52;67.34
35892;BME280;21993;42.672;23.296;2022-10-16T01:49:40;95381.94;;;11.56;66.69
35892;BME280;21993;42.672;23.296;2022-10-16T01:52:10;95393.78;;;11.50;66.79
35892;BME280;21993;42.672;23.296;2022-10-16T01:54:37;95398.81;;;11.42;67.38
35892;BME280;21993;42.672;23.296;2022-10-16T01:57:06;95393.53;;;11.53;66.71
35892;BME280;21993;42.672;23.296;2022-10-16T01:59:36;95391.97;;;11.51;67.10
35892;BME280;21993;42.672;23.296;2022-10-16T02:02:06;95399.53;;;11.44;67.41
35892;BME280;21993;42.672;23.296;2022-10-16T02:04:37;95398.44;;;11.47;67.09
35892;BME280;21993;42.672;23.296;2022-10-16T02:07:04;95397.00;;;11.43;67.41
35892;BME280;21993;42.672;23.296;2022-10-16T02:09:32;95402.63;;;11.49;67.32
35892;BME280;21993;42.672;23.296;2022-10-16T02:11:59;95406.22;;;11.48;67.68
35892;BME280;21993;42.672;23.296;2022-10-16T02:14:29;95401.81;;;11.38;67.69
35892;BME280;21993;42.672;23.296;2022-10-16T02:16:54;95409.47;;;11.41;67.35
35892;BME280;21993;42.672;23.296;2022-10-16T02:19:20;95410.91;;;11.45;67.58
35892;BME280;21993;42.672;23.296;2022-10-16T02:27:06;95416.75;;;11.37;67.51
35892;BME280;21993;42.672;23.296;2022-10-16T02:29:40;95420.22;;;11.38;67.69
35892;BME280;21993;42.672;23.296;2022-10-16T02:32:12;95423.81;;;11.37;67.95
35892;BME280;21993;42.672;23.296;2022-10-16T02:34:40;95423.06;;;11.35;67.72
35892;BME280;21993;42.672;23.296;2022-10-16T02:37:06;95417.72;;;11.36;67.57
35892;BME280;21993;42.672;23.296;2022-10-16T02:39:33;95418.69;;;11.24;68.36
35892;BME280;21993;42.672;23.296;2022-10-16T02:41:59;95419.53;;;11.24;68.25
35892;BME280;21993;42.672;23.296;2022-10-16T02:44:24;95415.22;;;11.23;68.13
35892;BME280;21993;42.672;23.296;2022-10-16T02:46:50;95423.25;;;11.11;68.58
35892;BME280;21993;42.672;23.296;2022-10-16T02:49:15;95431.03;;;11.12;68.50
35892;BME280;21993;42.672;23.296;2022-10-16T02:51:41;95432.44;;;11.16;68.70
35892;BME280;21993;42.672;23.296;2022-10-16T02:54:06;95429.69;;;11.18;68.61
35892;BME280;21993;42.672;23.296;2022-10-16T02:56:32;95436.97;;;11.14;68.15
35892;BME280;21993;42.672;23.296;2022-10-16T02:58:57;95432.44;;;11.16;68.31
35892;BME280;21993;42.672;23.296;2022-10-16T03:01:23;95438.41;;;11.07;68.52
35892;BME280;21993;42.672;23.296;2022-10-16T03:03:49;95438.06;;;11.12;68.54
35892;BME280;21993;42.672;23.296;2022-10-16T03:06:14;95437.47;;;11.08;68.72
35892;BME280;21993;42.672;23.296;2022-10-16T03:08:39;95438.41;;;11.07;68.51
35892;BME280;21993;42.672;23.296;2022-10-16T03:11:05;95438.88;;;11.01;68.80
35892;BME280;21993;42.672;23.296;2022-10-16T03:13:30;95442.84;;;11.07;68.65
35892;BME280;21993;42.672;23.296;2022-10-16T03:15:56;95444.28;;;11.11;68.40
35892;BME280;21993;42.672;23.296;2022-10-16T03:18:21;95436.63;;;11.08;68.59
35892;BME280;21993;42.672;23.296;2022-10-16T03:20:47;95447.00;;;11.09;68.53
35892;BME280;21993;42.672;23.296;2022-10-16T03:23:12;95442.00;;;11.06;68.34
35892;BME280;21993;42.672;23.296;2022-10-16T03:25:37;95442.38;;;11.02;68.11
35892;BME280;21993;42.672;23.296;2022-10-16T03:28:03;95451.69;;;10.94;67.90
35892;BME280;21993;42.672;23.296;2022-10-16T03:30:29;95458.50;;;10.86;68.27
35892;BME280;21993;42.672;23.296;2022-10-16T03:32:54;95453.72;;;10.80;68.93
35892;BME280;21993;42.672;23.296;2022-10-16T03:35:23;95458.59;;;10.84;68.79
35892;BME280;21993;42.672;23.296;2022-10-16T03:37:49;95460.88;;;10.78;68.83
35892;BME280;21993;42.672;23.296;2022-10-16T03:40:16;95452.16;;;10.77;68.94
35892;BME280;21993;42.672;23.296;2022-10-16T03:42:44;95451.34;;;10.77;69.08
35892;BME280;21993;42.672;23.296;2022-10-16T03:45:11;95455.97;;;10.73;68.84
35892;BME280;21993;42.672;23.296;2022-10-16T03:47:36;95446.09;;;10.77;68.85
35892;BME280;21993;42.672;23.296;2022-10-16T03:50:03;95449.28;;;10.69;68.75
35892;BME280;21993;42.672;23.296;2022-10-16T03:52:29;95449.50;;;10.66;68.67
35892;BME280;21993;42.672;23.296;2022-10-16T03:54:54;95439.50;;;10.60;69.02
35892;BME280;21993;42.672;23.296;2022-10-16T03:57:20;95444.59;;;10.50;69.01
35892;BME280;21993;42.672;23.296;2022-10-16T03:59:46;95445.81;;;10.57;68.78
35892;BME280;21993;42.672;23.296;2022-10-16T04:02:11;95447.72;;;10.55;68.67
35892;BME280;21993;42.672;23.296;2022-10-16T04:04:37;95439.72;;;10.57;68.31
35892;BME280;21993;42.672;23.296;2022-10-16T04:07:02;95442.00;;;10.61;68.10
35892;BME280;21993;42.672;23.296;2022-10-16T04:09:28;95444.75;;;10.60;68.17
35892;BME280;21993;42.672;23.296;2022-10-16T04:11:53;95439.00;;;10.66;68.44
35892;BME280;21993;42.672;23.296;2022-10-16T04:14:18;95448.09;;;10.62;68.31
35892;BME280;21993;42.672;23.296;2022-10-16T04:16:44;95445.34;;;10.63;68.29
35892;BME280;21993;42.672;23.296;2022-10-16T04:19:10;95455.25;;;10.60;68.73
35892;BME280;21993;42.672;23.296;2022-10-16T04:21:36;95454.38;;;10.59;68.87
35892;BME280;21993;42.672;23.296;2022-10-16T04:24:01;95450.22;;;10.57;68.85
35892;BME280;21993;42.672;23.296;2022-10-16T04:26:27;95449.38;;;10.56;68.81
35892;BME280;21993;42.672;23.296;2022-10-16T04:28:52;95450.84;;;10.60;68.89
35892;BME280;21993;42.672;23.296;2022-10-16T04:31:17;95461.19;;;10.51;69.77
35892;BME280;21993;42.672;23.296;2022-10-16T04:33:43;95468.72;;;10.55;69.34
35892;BME280;21993;42.672;23.296;2022-10-16T04:36:09;95467.38;;;10.50;69.46
35892;BME280;21993;42.672;23.296;2022-10-16T04:38:34;95464.75;;;10.50;69.00
35892;BME280;21993;42.672;23.296;2022-10-16T04:41:00;95457.63;;;10.52;68.94
35892;BME280;21993;42.672;23.296;2022-10-16T04:43:26;95460.84;;;10.44;69.21
35892;BME280;21993;42.672;23.296;2022-10-16T04:45:51;95460.84;;;10.44;69.03
35892;BME280;21993;42.672;23.296;2022-10-16T04:48:18;95471.91;;;10.48;69.26
35892;BME280;21993;42.672;23.296;2022-10-16T04:50:43;95473.13;;;10.43;69.27
35892;BME280;21993;42.672;23.296;2022-10-16T04:53:09;95482.78;;;10.43;69.50
35892;BME280;21993;42.672;23.296;2022-10-16T04:55:34;95480.03;;;10.45;69.03
35892;BME280;21993;42.672;23.296;2022-10-16T04:58:00;95479.41;;;10.41;68.20
35892;BME280;21993;42.672;23.296;2022-10-16T05:00:25;95481.31;;;10.28;68.29
35892;BME280;21993;42.672;23.296;2022-10-16T05:02:51;95492.97;;;10.24;67.98
35892;BME280;21993;42.672;23.296;2022-10-16T05:05:16;95491.09;;;10.26;68.20
35892;BME280;21993;42.672;23.296;2022-10-16T05:07:44;95487.91;;;10.21;68.29
35892;BME280;21993;42.672;23.296;2022-10-16T05:10:09;95492.13;;;10.23;68.23
35892;BME280;21993;42.672;23.296;2022-10-16T05:12:34;95494.63;;;10.25;68.00
35892;BME280;21993;42.672;23.296;2022-10-16T05:15:00;95494.75;;;10.23;68.18
35892;BME280;21993;42.672;23.296;2022-10-16T05:17:26;95491.81;;;10.15;68.33
35892;BME280;21993;42.672;23.296;2022-10-16T05:19:51;95502.78;;;10.09;68.74
35892;BME280;21993;42.672;23.296;2022-10-16T05:22:17;95501.03;;;10.21;68.66
35892;BME280;21993;42.672;23.296;2022-10-16T05:24:42;95503.13;;;10.28;68.27
35892;BME280;21993;42.672;23.296;2022-10-16T05:27:08;95504.50;;;10.21;69.31
35892;BME280;21993;42.672;23.296;2022-10-16T05:29:33;95508.06;;;10.20;69.32
35892;BME280;21993;42.672;23.296;2022-10-16T05:31:59;95509.72;;;10.10;69.62
35892;BME280;21993;42.672;23.296;2022-10-16T05:34:24;95510.03;;;10.29;69.27
35892;BME280;21993;42.672;23.296;2022-10-16T05:36:50;95517.34;;;10.37;69.58
35892;BME280;21993;42.672;23.296;2022-10-16T05:39:16;95509.25;;;10.40;69.44
35892;BME280;21993;42.672;23.296;2022-10-16T05:41:42;95516.16;;;10.41;69.58
35892;BME280;21993;42.672;23.296;2022-10-16T05:44:07;95510.91;;;10.41;70.08
35892;BME280;21993;42.672;23.296;2022-10-16T05:46:33;95518.56;;;10.44;69.94
35892;BME280;21993;42.672;23.296;2022-10-16T05:48:58;95516.53;;;10.48;70.04
35892;BME280;21993;42.672;23.296;2022-10-16T05:51:24;95528.13;;;10.56;70.24
35892;BME280;21993;42.672;23.296;2022-10-16T05:53:49;95519.56;;;10.54;70.28
35892;BME280;21993;42.672;23.296;2022-10-16T05:56:15;95525.91;;;10.63;70.28
35892;BME280;21993;42.672;23.296;2022-10-16T05:58:41;95524.69;;;10.67;70.21
35892;BME280;21993;42.672;23.296;2022-10-16T06:01:12;95526.16;;;10.71;69.71
35892;BME280;21993;42.672;23.296;2022-10-16T06:03:39;95536.28;;;10.76;69.96
35892;BME280;21993;42.672;23.296;2022-10-16T06:06:16;95540.63;;;10.77;70.41
35892;BME280;21993;42.672;23.296;2022-10-16T06:08:42;95541.22;;;10.91;69.91
35892;BME280;21993;42.672;23.296;2022-10-16T06:11:13;95546.72;;;10.99;69.67
35892;BME280;21993;42.672;23.296;2022-10-16T06:13:39;95550.94;;;11.02;69.38
35892;BME280;21993;42.672;23.296;2022-10-16T06:16:07;95554.97;;;10.95;70.42
35892;BME280;21993;42.672;23.296;2022-10-16T06:18:32;95557.72;;;11.05;70.20
35892;BME280;21993;42.672;23.296;2022-10-16T06:20:58;95554.25;;;11.04;70.11
35892;BME280;21993;42.672;23.296;2022-10-16T06:23:24;95557.59;;;11.17;69.61
35892;BME280;21993;42.672;23.296;2022-10-16T06:25:49;95557.63;;;11.28;69.56
35892;BME280;21993;42.672;23.296;2022-10-16T06:28:15;95563.25;;;11.35;69.11
35892;BME280;21993;42.672;23.296;2022-10-16T06:30:41;95554.41;;;11.36;68.99
35892;BME280;21993;42.672;23.296;2022-10-16T06:33:09;95555.59;;;11.43;68.47
35892;BME280;21993;42.672;23.296;2022-10-16T06:35:35;95564.19;;;11.56;67.90
35892;BME280;21993;42.672;23.296;2022-10-16T06:38:00;95568.88;;;11.53;68.49
35892;BME280;21993;42.672;23.296;2022-10-16T06:40:25;95564.31;;;11.55;68.78
35892;BME280;21993;42.672;23.296;2022-10-16T06:42:51;95568.28;;;11.61;68.71
35892;BME280;21993;42.672;23.296;2022-10-16T06:45:17;95566.34;;;11.63;68.80
35892;BME280;21993;42.672;23.296;2022-10-16T06:47:42;95572.06;;;11.79;67.69
35892;BME280;21993;42.672;23.296;2022-10-16T06:50:08;95576.16;;;11.94;66.92
35892;BME280;21993;42.672;23.296;2022-10-16T06:52:34;95585.22;;;11.90;67.62
35892;BME280;21993;42.672;23.296;2022-10-16T06:54:59;95585.44;;;12.09;66.47
35892;BME280;21993;42.672;23.296;2022-10-16T06:57:25;95593.88;;;12.24;65.95
35892;BME280;21993;42.672;23.296;2022-10-16T06:59:50;95588.13;;;12.30;65.81
35892;BME280;21993;42.672;23.296;2022-10-16T07:02:15;95595.06;;;12.31;66.46
35892;BME280;21993;42.672;23.296;2022-10-16T07:04:41;95597.00;;;12.29;66.53
35892;BME280;21993;42.672;23.296;2022-10-16T07:07:06;95591.81;;;12.39;66.27
35892;BME280;21993;42.672;23.296;2022-10-16T07:09:31;95591.44;;;12.44;65.95
35892;BME280;21993;42.672;23.296;2022-10-16T07:11:57;95590.94;;;12.50;66.40
35892;BME280;21993;42.672;23.296;2022-10-16T07:14:22;95591.97;;;12.58;66.23
35892;BME280;21993;42.672;23.296;2022-10-16T07:16:48;95600.03;;;12.78;65.24
35892;BME280;21993;42.672;23.296;2022-10-16T07:19:14;95603.63;;;12.77;65.02
35892;BME280;21993;42.672;23.296;2022-10-16T07:21:42;95602.44;;;12.81;65.96
35892;BME280;21993;42.672;23.296;2022-10-16T07:24:13;95596.09;;;13.04;64.70
35892;BME280;21993;42.672;23.296;2022-10-16T07:26:39;95589.44;;;13.10;64.85
35892;BME280;21993;42.672;23.296;2022-10-16T07:29:17;95596.09;;;13.25;65.02
35892;BME280;21993;42.672;23.296;2022-10-16T07:31:43;95601.41;;;13.35;63.71
35892;BME280;21993;42.672;23.296;2022-10-16T07:34:10;95594.28;;;13.46;64.09
35892;BME280;21993;42.672;23.296;2022-10-16T07:36:35;95602.66;;;13.61;63.14
35892;BME280;21993;42.672;23.296;2022-10-16T07:39:01;95596.38;;;13.52;63.81
35892;BME280;21993;42.672;23.296;2022-10-16T07:41:26;95597.38;;;13.61;63.91
35892;BME280;21993;42.672;23.296;2022-10-16T07:43:53;95597.69;;;13.68;63.17
35892;BME280;21993;42.672;23.296;2022-10-16T07:46:20;95595.38;;;13.74;63.30
35892;BME280;21993;42.672;23.296;2022-10-16T07:48:46;95597.81;;;13.97;62.39
35892;BME280;21993;42.672;23.296;2022-10-16T07:51:15;95592.28;;;14.09;61.71
35892;BME280;21993;42.672;23.296;2022-10-16T07:53:41;95604.41;;;14.22;61.44
35892;BME280;21993;42.672;23.296;2022-10-16T07:56:07;95599.81;;;14.24;61.64
35892;BME280;21993;42.672;23.296;2022-10-16T07:58:33;95603.16;;;14.35;61.47
35892;BME280;21993;42.672;23.296;2022-10-16T08:01:04;95600.66;;;14.44;61.61
35892;BME280;21993;42.672;23.296;2022-10-16T08:03:29;95611.84;;;14.47;60.96
35892;BME280;21993;42.672;23.296;2022-10-16T08:05:57;95611.84;;;14.57;61.42
35892;BME280;21993;42.672;23.296;2022-10-16T08:08:22;95603.50;;;14.71;60.63
35892;BME280;21993;42.672;23.296;2022-10-16T08:10:48;95607.84;;;14.82;60.63
35892;BME280;21993;42.672;23.296;2022-10-16T08:13:13;95599.34;;;14.98;59.84
35892;BME280;21993;42.672;23.296;2022-10-16T08:15:41;95601.78;;;15.28;57.88
35892;BME280;21993;42.672;23.296;2022-10-16T08:18:06;95598.03;;;15.21;58.85
35892;BME280;21993;42.672;23.296;2022-10-16T08:20:32;95601.53;;;15.31;58.24
35892;BME280;21993;42.672;23.296;2022-10-16T08:23:02;95597.31;;;15.48;57.50
35892;BME280;21993;42.672;23.296;2022-10-16T08:25:28;95593.13;;;15.36;58.72
35892;BME280;21993;42.672;23.296;2022-10-16T08:27:53;95586.59;;;15.40;59.05
35892;BME280;21993;42.672;23.296;2022-10-16T08:30:21;95597.41;;;15.66;57.16
35892;BME280;21993;42.672;23.296;2022-10-16T08:32:47;95586.25;;;15.62;57.31
35892;BME280;21993;42.672;23.296;2022-10-16T08:35:13;95586.94;;;15.74;56.59
35892;BME280;21993;42.672;23.296;2022-10-16T08:37:39;95590.69;;;15.81;56.73
35892;BME280;21993;42.672;23.296;2022-10-16T08:40:07;95592.44;;;15.90;55.85
35892;BME280;21993;42.672;23.296;2022-10-16T08:43:03;95582.78;;;15.99;54.78
35892;BME280;21993;42.672;23.296;2022-10-16T08:48:51;95586.00;;;15.93;56.27
35892;BME280;21993;42.672;23.296;2022-10-16T08:51:35;95594.94;;;16.19;54.97
35892;BME280;21993;42.672;23.296;2022-10-16T08:54:04;95593.44;;;16.35;55.15
35892;BME280;21993;42.672;23.296;2022-10-16T08:56:30;95588.59;;;16.30;55.27
35892;BME280;21993;42.672;23.296;2022-10-16T08:58:57;95597.78;;;16.53;53.54
35892;BME280;21993;42.672;23.296;2022-10-16T09:01:24;95595.97;;;16.54;54.56
35892;BME280;21993;42.672;23.296;2022-10-16T09:04:18;95601.75;;;16.67;49.11
35892;BME280;21993;42.672;23.296;2022-10-16T09:07:02;95596.25;;;16.78;49.33
35892;BME280;21993;42.672;23.296;2022-10-16T09:20:39;95580.16;;;16.98;47.29
35892;BME280;21993;42.672;23.296;2022-10-16T09:23:18;95586.41;;;17.14;47.66
35892;BME280;21993;42.672;23.296;2022-10-16T09:25:46;95586.41;;;17.14;47.33
35892;BME280;21993;42.672;23.296;2022-10-16T09:28:13;95582.66;;;17.17;46.20
35892;BME280;21993;42.672;23.296;2022-10-16T09:30:39;95586.19;;;17.26;46.82
35892;BME280;21993;42.672;23.296;2022-10-16T09:33:05;95583.59;;;17.34;45.91
35892;BME280;21993;42.672;23.296;2022-10-16T09:35:36;95586.53;;;17.31;48.47
35892;BME280;21993;42.672;23.296;2022-10-16T09:38:02;95590.84;;;17.50;46.05
35892;BME280;21993;42.672;23.296;2022-10-16T09:40:30;95585.25;;;17.61;47.13
35892;BME280;21993;42.672;23.296;2022-10-16T09:43:22;95597.16;;;17.75;45.40
35892;BME280;21993;42.672;23.296;2022-10-16T09:45:57;95588.91;;;17.60;44.95
35892;BME280;21993;42.672;23.296;2022-10-16T09:48:25;95585.72;;;17.56;45.96
35892;BME280;21993;42.672;23.296;2022-10-16T09:50:59;95572.81;;;17.61;45.39
35892;BME280;21993;42.672;23.296;2022-10-16T09:53:43;95570.53;;;17.66;45.93
35892;BME280;21993;42.672;23.296;2022-10-16T09:56:11;95571.72;;;17.72;46.33
35892;BME280;21993;42.672;23.296;2022-10-16T09:58:42;95568.69;;;17.93;46.14
35892;BME280;21993;42.672;23.296;2022-10-16T10:01:13;95568.72;;;18.01;45.71
35892;BME280;21993;42.672;23.296;2022-10-16T10:03:41;95576.91;;;18.08;45.11
35892;BME280;21993;42.672;23.296;2022-10-16T10:06:29;95567.25;;;18.15;43.24
35892;BME280;21993;42.672;23.296;2022-10-16T10:09:03;95565.31;;;18.25;43.07
35892;BME280;21993;42.672;23.296;2022-10-16T10:12:14;95565.66;;;18.30;42.57
35892;BME280;21993;42.672;23.296;2022-10-16T10:14:39;95554.53;;;18.26;44.45
35892;BME280;21993;42.672;23.296;2022-10-16T10:17:19;95554.53;;;18.26;43.93
35892;BME280;21993;42.672;23.296;2022-10-16T10:19:48;95558.88;;;18.44;43.01
35892;BME280;21993;42.672;23.296;2022-10-16T10:33:30;95542.03;;;18.86;43.65
35892;BME280;21993;42.672;23.296;2022-10-16T10:44:30;95528.84;;;19.17;42.28
35892;BME280;21993;42.672;23.296;2022-10-16T10:50:07;95522.16;;;19.45;39.92
35892;BME280;21993;42.672;23.296;2022-10-16T11:04:06;95523.59;;;19.72;38.13
35892;BME280;21993;42.672;23.296;2022-10-16T11:06:42;95514.16;;;19.61;38.21
35892;BME280;21993;42.672;23.296;2022-10-16T11:09:19;95519.97;;;19.57;38.66
35892;BME280;21993;42.672;23.296;2022-10-16T11:14:21;95509.13;;;19.66;39.46
35892;BME280;21993;42.672;23.296;2022-10-16T11:17:01;95508.09;;;19.76;37.26
35892;BME280;21993;42.672;23.296;2022-10-16T11:19:41;95509.75;;;19.85;36.57
35892;BME280;21993;42.672;23.296;2022-10-16T11:22:32;95495.41;;;19.86;36.99
35892;BME280;21993;42.672;23.296;2022-10-16T11:25:12;95496.69;;;19.98;37.23
35892;BME280;21993;42.672;23.296;2022-10-16T11:27:43;95500.81;;;20.01;37.36
35892;BME280;21993;42.672;23.296;2022-10-16T11:30:22;95491.53;;;19.96;36.87
35892;BME280;21993;42.672;23.296;2022-10-16T11:33:02;95500.09;;;20.15;37.25
35892;BME280;21993;42.672;23.296;2022-10-16T11:35:41;95489.16;;;20.10;37.58
35892;BME280;21993;42.672;23.296;2022-10-16T11:38:32;95497.59;;;20.13;38.59
35892;BME280;21993;42.672;23.296;2022-10-16T11:43:52;95498.72;;;20.27;37.64
35892;BME280;21993;42.672;23.296;2022-10-16T11:46:22;95491.53;;;20.28;38.34
35892;BME280;21993;42.672;23.296;2022-10-16T11:49:25;95494.44;;;20.41;37.65
35892;BME280;21993;42.672;23.296;2022-10-16T11:54:44;95495.06;;;20.51;37.23
35892;BME280;21993;42.672;23.296;2022-10-16T11:57:21;95499.75;;;20.49;37.05
35892;BME280;21993;42.672;23.296;2022-10-16T12:00:20;95493.72;;;20.55;37.20
35892;BME280;21993;42.672;23.296;2022-10-16T12:06:07;95491.69;;;20.57;37.46
35892;BME280;21993;42.672;23.296;2022-10-16T12:08:36;95490.38;;;20.76;37.88
35892;BME280;21993;42.672;23.296;2022-10-16T12:11:32;95493.22;;;20.74;36.98
35892;BME280;21993;42.672;23.296;2022-10-16T12:16:37;95485.78;;;20.85;37.11
35892;BME280;21993;42.672;23.296;2022-10-16T12:19:12;95490.16;;;20.86;36.78
35892;BME280;21993;42.672;23.296;2022-10-16T12:21:38;95486.28;;;20.88;36.49
35892;BME280;21993;42.672;23.296;2022-10-16T12:24:04;95495.81;;;21.05;35.93
35892;BME280;21993;42.672;23.296;2022-10-16T12:26:37;95492.69;;;21.17;36.12
35892;BME280;21993;42.672;23.296;2022-10-16T12:29:34;95493.00;;;21.22;36.81
35892;BME280;21993;42.672;23.296;2022-10-16T12:32:01;95491.69;;;21.18;37.40
35892;BME280;21993;42.672;23.296;2022-10-16T12:34:39;95493.91;;;21.14;35.94
35892;BME280;21993;42.672;23.296;2022-10-16T12:37:14;95492.88;;;21.15;36.05
35892;BME280;21993;42.672;23.296;2022-10-16T12:39:45;95487.66;;;21.22;35.99
35892;BME280;21993;42.672;23.296;2022-10-16T12:44:47;95491.59;;;21.11;37.24
35892;BME280;21993;42.672;23.296;2022-10-16T12:47:35;95492.34;;;21.20;37.20
35892;BME280;21993;42.672;23.296;2022-10-16T12:50:00;95489.00;;;21.18;36.82
35892;BME280;21993;42.672;23.296;2022-10-16T12:52:38;95500.34;;;21.20;36.86
35892;BME280;21993;42.672;23.296;2022-10-16T12:55:06;95498.69;;;21.19;36.63
35892;BME280;21993;42.672;23.296;2022-10-16T13:00:53;95499.59;;;21.26;35.94
35892;BME280;21993;42.672;23.296;2022-10-16T13:06:33;95509.00;;;21.22;36.38
35892;BME280;21993;42.672;23.296;2022-10-16T13:09:30;95513.94;;;21.33;36.40
35892;BME280;21993;42.672;23.296;2022-10-16T13:12:25;95507.34;;;21.21;36.18
35892;BME280;21993;42.672;23.296;2022-10-16T13:15:06;95506.97;;;21.24;36.97
35892;BME280;21993;42.672;23.296;2022-10-16T13:20:16;95502.66;;;21.23;35.57
35892;BME280;21993;42.672;23.296;2022-10-16T13:28:35;95500.72;;;20.79;36.50
35892;BME280;21993;42.672;23.296;2022-10-16T13:31:03;95504.56;;;20.54;37.00
35892;BME280;21993;42.672;23.296;2022-10-16T13:33:39;95499.94;;;20.70;36.57
35892;BME280;21993;42.672;23.296;2022-10-16T13:36:06;95505.50;;;20.84;36.51
35892;BME280;21993;42.672;23.296;2022-10-16T13:38:33;95511.00;;;20.82;36.40
35892;BME280;21993;42.672;23.296;2022-10-16T13:41:05;95511.97;;;20.89;37.11
35892;BME280;21993;42.672;23.296;2022-10-16T13:43:39;95509.75;;;20.93;37.01
35892;BME280;21993;42.672;23.296;2022-10-16T13:46:16;95502.50;;;20.87;36.45
35892;BME280;21993;42.672;23.296;2022-10-16T13:48:42;95511.66;;;20.84;36.03
35892;BME280;21993;42.672;23.296;2022-10-16T13:51:16;95515.06;;;20.78;36.25
35892;BME280;21993;42.672;23.296;2022-10-16T13:53:43;95511.00;;;20.82;36.34
35892;BME280;21993;42.672;23.296;2022-10-16T13:56:20;95506.44;;;20.68;35.87
35892;BME280;21993;42.672;23.296;2022-10-16T13:58:57;95502.03;;;20.60;36.06
35892;BME280;21993;42.672;23.296;2022-10-16T14:01:24;95516.84;;;20.63;36.77
35892;BME280;21993;42.672;23.296;2022-10-16T14:03:51;95517.72;;;20.55;36.58
35892;BME280;21993;42.672;23.296;2022-10-16T14:06:21;95521.91;;;20.49;37.30
35892;BME280;21993;42.672;23.296;2022-10-16T14:09:02;95524.41;;;20.43;36.99
35892;BME280;21993;42.672;23.296;2022-10-16T14:11:30;95525.25;;;20.51;37.27
35892;BME280;21993;42.672;23.296;2022-10-16T14:13:55;95517.91;;;20.54;36.43
35892;BME280;21993;42.672;23.296;2022-10-16T14:16:24;95524.69;;;20.25;37.10
35892;BME280;21993;42.672;23.296;2022-10-16T14:21:20;95520.69;;;20.29;36.31
35892;BME280;21993;42.672;23.296;2022-10-16T14:23:46;95524.19;;;20.30;35.44
35892;BME280;21993;42.672;23.296;2022-10-16T14:26:14;95533.06;;;20.22;36.23
35892;BME280;21993;42.672;23.296;2022-10-16T14:28:41;95526.47;;;20.10;36.01
35892;BME280;21993;42.672;23.296;2022-10-16T14:33:44;95534.81;;;19.99;36.14
35892;BME280;21993;42.672;23.296;2022-10-16T14:38:36;95534.91;;;19.74;35.69
35892;BME280;21993;42.672;23.296;2022-10-16T14:41:03;95542.41;;;19.79;35.93
35892;BME280;21993;42.672;23.296;2022-10-16T14:43:37;95542.06;;;19.74;36.45
35892;BME280;21993;42.672;23.296;2022-10-16T14:46:11;95535.41;;;19.78;36.39
35892;BME280;21993;42.672;23.296;2022-10-16T14:48:41;95546.72;;;19.80;36.89
35892;BME280;21993;42.672;23.296;2022-10-16T14:51:13;95545.38;;;19.84;36.65